SDM766 UUEE-VTSP
Flight info
| Callsign | SDM766 |
|---|---|
| Flight time | N/A |
| Altitude | 31000 |
| Route | TOGMO3F TOGMO M56 DENUD M161 MILSO M875 FAZUL/K0911F330 M875 AMDAR/N0500F330 M875 TAPIS L509 NONIB T400 SULOM A466 DPN L759 BBS/N0499F350 L759 SATVA SATVA1D |
| Aircraft | B77W/H-SDE1E2E3FGHIJ2J3J4J5M1RWXY/LB1D1 |
Departure
| Time | 2026-05-01 13:30 |
|---|---|
| Airport | Sheremetyevo International Airport (UUEE) |
Arrival
| Time | N/A |
|---|---|
| Airport | Phuket International Airport (VTSP) |
| Time | Latitude | Longitude | Altitude | Speed | Heading |
|---|---|---|---|---|---|
| 2026-05-01 12:55 | 55.97739 | 37.41301 | 645 ft | 0 kts | 305° |
| 2026-05-01 13:18 | 55.97736 | 37.41307 | 644 ft | 2 kts | 305° |
| 2026-05-01 13:18 | 55.97728 | 37.41328 | 644 ft | 2 kts | 305° |
| 2026-05-01 13:18 | 55.97719 | 37.41351 | 644 ft | 2 kts | 305° |
| 2026-05-01 13:19 | 55.97713 | 37.41365 | 644 ft | 2 kts | 305° |
| 2026-05-01 13:19 | 55.97702 | 37.41394 | 644 ft | 2 kts | 305° |
| 2026-05-01 13:19 | 55.97684 | 37.41437 | 644 ft | 2 kts | 304° |
| 2026-05-01 13:20 | 55.97677 | 37.41460 | 644 ft | 2 kts | 289° |
| 2026-05-01 13:20 | 55.97673 | 37.41486 | 644 ft | 2 kts | 275° |
| 2026-05-01 13:20 | 55.97673 | 37.41512 | 644 ft | 2 kts | 263° |
| 2026-05-01 13:21 | 55.97677 | 37.41542 | 644 ft | 0 kts | 252° |
| 2026-05-01 13:24 | 55.97674 | 37.41530 | 644 ft | 3 kts | 252° |
| 2026-05-01 13:24 | 55.97661 | 37.41456 | 644 ft | 8 kts | 253° |
| 2026-05-01 13:25 | 55.97616 | 37.41200 | 644 ft | 8 kts | 225° |
| 2026-05-01 13:25 | 55.97560 | 37.41208 | 644 ft | 10 kts | 124° |
| 2026-05-01 13:25 | 55.97559 | 37.41341 | 644 ft | 11 kts | 76° |
| 2026-05-01 13:25 | 55.97580 | 37.41490 | 644 ft | 13 kts | 75° |
| 2026-05-01 13:26 | 55.97604 | 37.41658 | 644 ft | 15 kts | 75° |
| 2026-05-01 13:26 | 55.97633 | 37.41853 | 644 ft | 17 kts | 74° |
| 2026-05-01 13:26 | 55.97668 | 37.42072 | 644 ft | 19 kts | 74° |
| 2026-05-01 13:26 | 55.97705 | 37.42316 | 644 ft | 21 kts | 75° |
| 2026-05-01 13:27 | 55.97743 | 37.42578 | 644 ft | 22 kts | 75° |
| 2026-05-01 13:27 | 55.97785 | 37.42860 | 644 ft | 24 kts | 74° |
| 2026-05-01 13:27 | 55.97876 | 37.43458 | 644 ft | 23 kts | 75° |
| 2026-05-01 13:28 | 55.97943 | 37.43935 | 644 ft | 12 kts | 83° |
| 2026-05-01 13:28 | 55.97907 | 37.44039 | 644 ft | 10 kts | 156° |
| 2026-05-01 13:29 | 55.97777 | 37.43982 | 644 ft | 12 kts | 254° |
| 2026-05-01 13:29 | 55.97592 | 37.42741 | 645 ft | 109 kts | 255° |
| 2026-05-01 13:30 | 55.96266 | 37.34317 | 1880 ft | 203 kts | 254° |
| 2026-05-01 13:31 | 55.95498 | 37.29770 | 2170 ft | 231 kts | 257° |
| 2026-05-01 13:31 | 55.94144 | 37.20981 | 3387 ft | 257 kts | 256° |
| 2026-05-01 13:32 | 55.93187 | 37.14819 | 4550 ft | 261 kts | 256° |
| 2026-05-01 13:33 | 55.91736 | 37.05421 | 6152 ft | 266 kts | 261° |
| 2026-05-01 13:33 | 55.92535 | 36.99246 | 7061 ft | 266 kts | 311° |
| 2026-05-01 13:34 | 55.95402 | 36.95180 | 8075 ft | 267 kts | 326° |
| 2026-05-01 13:34 | 55.98680 | 36.92107 | 8981 ft | 272 kts | 353° |
| 2026-05-01 13:35 | 56.02259 | 36.93637 | 9924 ft | 275 kts | 30° |
| 2026-05-01 13:35 | 56.03884 | 36.95465 | 10460 ft | 275 kts | 31° |
| 2026-05-01 13:35 | 56.07061 | 36.99188 | 11527 ft | 274 kts | 32° |
| 2026-05-01 13:36 | 56.08649 | 37.01046 | 12035 ft | 275 kts | 32° |
| 2026-05-01 13:36 | 56.10251 | 37.02931 | 12566 ft | 275 kts | 34° |
| 2026-05-01 13:36 | 56.12394 | 37.08505 | 13396 ft | 290 kts | 69° |
| 2026-05-01 13:37 | 56.12945 | 37.12082 | 13614 ft | 304 kts | 71° |
| 2026-05-01 13:37 | 56.13455 | 37.15720 | 14132 ft | 305 kts | 71° |
| 2026-05-01 13:37 | 56.13972 | 37.19412 | 14765 ft | 305 kts | 71° |
| 2026-05-01 13:37 | 56.14496 | 37.23117 | 15154 ft | 309 kts | 71° |
| 2026-05-01 13:38 | 56.14521 | 37.30761 | 15158 ft | 323 kts | 103° |
| 2026-05-01 13:38 | 56.13453 | 37.34396 | 15217 ft | 341 kts | 124° |
| 2026-05-01 13:38 | 56.11662 | 37.37215 | 15710 ft | 354 kts | 143° |
| 2026-05-01 13:39 | 56.09477 | 37.39293 | 16451 ft | 353 kts | 148° |
| 2026-05-01 13:39 | 56.07275 | 37.41159 | 16904 ft | 359 kts | 149° |
| 2026-05-01 13:39 | 56.04981 | 37.43076 | 17359 ft | 363 kts | 149° |
| 2026-05-01 13:39 | 56.02704 | 37.44978 | 17855 ft | 365 kts | 149° |
| 2026-05-01 13:40 | 56.00407 | 37.46898 | 18284 ft | 370 kts | 148° |
| 2026-05-01 13:40 | 55.98112 | 37.48941 | 18773 ft | 368 kts | 141° |
| 2026-05-01 13:40 | 55.96118 | 37.51678 | 19136 ft | 363 kts | 127° |
| 2026-05-01 13:40 | 55.94575 | 37.55132 | 19541 ft | 354 kts | 112° |
| 2026-05-01 13:41 | 55.93570 | 37.59050 | 20043 ft | 342 kts | 98° |
| 2026-05-01 13:41 | 55.92986 | 37.63071 | 20261 ft | 334 kts | 94° |
| 2026-05-01 13:41 | 55.92474 | 37.67089 | 20274 ft | 332 kts | 94° |
| 2026-05-01 13:41 | 55.91994 | 37.71108 | 20270 ft | 332 kts | 96° |
| 2026-05-01 13:42 | 55.91246 | 37.75031 | 20262 ft | 339 kts | 107° |
| 2026-05-01 13:42 | 55.90154 | 37.78772 | 20282 ft | 340 kts | 109° |
| 2026-05-01 13:42 | 55.89045 | 37.82418 | 20264 ft | 339 kts | 110° |
| 2026-05-01 13:42 | 55.87879 | 37.86098 | 20250 ft | 340 kts | 115° |
| 2026-05-01 13:43 | 55.86427 | 37.89437 | 20216 ft | 346 kts | 126° |
| 2026-05-01 13:43 | 55.84621 | 37.92296 | 20201 ft | 353 kts | 137° |
| 2026-05-01 13:43 | 55.82501 | 37.94552 | 20178 ft | 359 kts | 148° |
| 2026-05-01 13:43 | 55.80173 | 37.96060 | 20152 ft | 365 kts | 160° |
| 2026-05-01 13:44 | 55.77629 | 37.96769 | 20120 ft | 370 kts | 173° |
| 2026-05-01 13:44 | 55.75087 | 37.96586 | 20090 ft | 376 kts | 185° |
| 2026-05-01 13:44 | 55.72474 | 37.95504 | 20078 ft | 392 kts | 197° |
| 2026-05-01 13:44 | 55.69933 | 37.93554 | 20131 ft | 405 kts | 204° |
| 2026-05-01 13:45 | 55.67314 | 37.91767 | 20500 ft | 406 kts | 193° |
| 2026-05-01 13:45 | 55.64587 | 37.90648 | 20944 ft | 405 kts | 186° |
| 2026-05-01 13:45 | 55.61800 | 37.89944 | 21161 ft | 411 kts | 181° |
| 2026-05-01 13:45 | 55.58919 | 37.89591 | 21187 ft | 423 kts | 178° |
| 2026-05-01 13:46 | 55.55933 | 37.89525 | 21207 ft | 435 kts | 174° |
| 2026-05-01 13:46 | 55.52859 | 37.89685 | 21220 ft | 448 kts | 173° |
| 2026-05-01 13:46 | 55.49703 | 37.89973 | 21246 ft | 461 kts | 172° |
| 2026-05-01 13:46 | 55.46461 | 37.90349 | 21284 ft | 474 kts | 171° |
| 2026-05-01 13:47 | 55.43158 | 37.90834 | 21593 ft | 479 kts | 167° |
| 2026-05-01 13:47 | 55.39928 | 37.92042 | 22089 ft | 474 kts | 157° |
| 2026-05-01 13:47 | 55.36903 | 37.94109 | 22535 ft | 469 kts | 147° |
| 2026-05-01 13:47 | 55.34100 | 37.96957 | 22926 ft | 466 kts | 140° |
| 2026-05-01 13:48 | 55.31398 | 38.00074 | 23306 ft | 469 kts | 139° |
| 2026-05-01 13:48 | 55.28696 | 38.03223 | 23805 ft | 470 kts | 139° |
| 2026-05-01 13:48 | 55.25961 | 38.06416 | 24310 ft | 471 kts | 138° |
| 2026-05-01 13:48 | 55.23254 | 38.09575 | 24648 ft | 474 kts | 138° |
| 2026-05-01 13:49 | 55.20498 | 38.12793 | 24968 ft | 478 kts | 138° |
| 2026-05-01 13:49 | 55.17755 | 38.15991 | 25316 ft | 481 kts | 138° |
| 2026-05-01 13:49 | 55.14944 | 38.19266 | 25643 ft | 484 kts | 138° |
| 2026-05-01 13:49 | 55.12167 | 38.22496 | 25990 ft | 486 kts | 138° |
| 2026-05-01 13:50 | 55.09360 | 38.25756 | 26310 ft | 489 kts | 138° |
| 2026-05-01 13:50 | 55.06531 | 38.29037 | 26646 ft | 491 kts | 138° |
| 2026-05-01 13:50 | 55.03680 | 38.32338 | 26976 ft | 493 kts | 138° |
| 2026-05-01 13:50 | 55.00811 | 38.35656 | 27298 ft | 495 kts | 138° |
| 2026-05-01 13:51 | 54.97937 | 38.38974 | 27564 ft | 498 kts | 138° |
| 2026-05-01 13:51 | 54.95052 | 38.42299 | 27824 ft | 502 kts | 138° |
| 2026-05-01 13:51 | 54.92140 | 38.45648 | 28150 ft | 503 kts | 138° |
| 2026-05-01 13:51 | 54.89232 | 38.48987 | 28431 ft | 506 kts | 138° |
| 2026-05-01 13:52 | 54.86290 | 38.52361 | 28629 ft | 510 kts | 138° |
| 2026-05-01 13:52 | 54.83319 | 38.55761 | 28871 ft | 512 kts | 138° |
| 2026-05-01 13:52 | 54.80313 | 38.59193 | 29175 ft | 513 kts | 139° |
| 2026-05-01 13:52 | 54.78355 | 38.61425 | 29368 ft | 514 kts | 139° |
| 2026-05-01 13:53 | 54.74334 | 38.65936 | 29827 ft | 516 kts | 141° |
| 2026-05-01 13:53 | 54.68176 | 38.72315 | 30588 ft | 512 kts | 142° |
| 2026-05-01 13:53 | 54.65091 | 38.75497 | 30854 ft | 511 kts | 142° |
| 2026-05-01 13:54 | 54.62015 | 38.78672 | 31044 ft | 513 kts | 142° |
| 2026-05-01 13:54 | 54.58976 | 38.81813 | 31150 ft | 515 kts | 142° |
| 2026-05-01 13:54 | 54.52867 | 38.88127 | 31177 ft | 511 kts | 143° |
| 2026-05-01 13:55 | 54.46759 | 38.94427 | 31186 ft | 511 kts | 143° |
| 2026-05-01 13:55 | 54.40651 | 39.00709 | 31174 ft | 511 kts | 143° |
| 2026-05-01 13:56 | 54.34584 | 39.06934 | 31181 ft | 510 kts | 143° |
| 2026-05-01 13:56 | 54.28807 | 39.13674 | 31186 ft | 501 kts | 132° |
| 2026-05-01 13:57 | 54.24412 | 39.22646 | 31204 ft | 488 kts | 115° |
| 2026-05-01 13:57 | 54.21789 | 39.33150 | 31194 ft | 477 kts | 98° |
| 2026-05-01 13:58 | 54.21236 | 39.44194 | 31199 ft | 464 kts | 80° |
| 2026-05-01 13:58 | 54.21887 | 39.55116 | 31170 ft | 470 kts | 85° |
| 2026-05-01 13:59 | 54.21164 | 39.66226 | 31161 ft | 473 kts | 97° |
| 2026-05-01 13:59 | 54.19534 | 39.77149 | 31183 ft | 482 kts | 102° |
| 2026-05-01 14:00 | 54.17405 | 39.87980 | 31171 ft | 483 kts | 105° |
| 2026-05-01 14:00 | 54.15031 | 39.98700 | 31183 ft | 485 kts | 107° |
| 2026-05-01 14:01 | 54.12510 | 40.09395 | 31178 ft | 486 kts | 108° |
| 2026-05-01 14:01 | 54.10424 | 40.20222 | 31194 ft | 485 kts | 102° |
| 2026-05-01 14:02 | 54.08564 | 40.31250 | 31178 ft | 485 kts | 102° |
| 2026-05-01 14:02 | 54.06686 | 40.42178 | 31159 ft | 485 kts | 102° |
| 2026-05-01 14:03 | 54.04779 | 40.53138 | 31164 ft | 485 kts | 102° |
| 2026-05-01 14:03 | 54.02850 | 40.64119 | 31168 ft | 486 kts | 103° |
| 2026-05-01 14:04 | 54.00907 | 40.75087 | 31171 ft | 486 kts | 104° |
| 2026-05-01 14:04 | 53.98957 | 40.86021 | 31169 ft | 487 kts | 104° |
| 2026-05-01 14:05 | 53.96983 | 40.97016 | 31172 ft | 489 kts | 104° |
| 2026-05-01 14:05 | 53.95029 | 41.08009 | 31162 ft | 488 kts | 103° |
| 2026-05-01 14:06 | 53.93237 | 41.19044 | 31163 ft | 489 kts | 102° |
| 2026-05-01 14:06 | 53.91425 | 41.30124 | 31154 ft | 489 kts | 103° |
| 2026-05-01 14:07 | 53.89585 | 41.41258 | 31148 ft | 491 kts | 103° |
| 2026-05-01 14:08 | 53.86810 | 41.57889 | 31148 ft | 491 kts | 103° |
| 2026-05-01 14:08 | 53.84947 | 41.68953 | 31152 ft | 492 kts | 104° |
| 2026-05-01 14:09 | 53.83064 | 41.80051 | 31159 ft | 494 kts | 104° |
| 2026-05-01 14:09 | 53.81162 | 41.91143 | 31146 ft | 493 kts | 104° |
| 2026-05-01 14:10 | 53.79237 | 42.02303 | 31143 ft | 496 kts | 104° |
| 2026-05-01 14:10 | 53.77304 | 42.13435 | 31143 ft | 496 kts | 104° |
| 2026-05-01 14:11 | 53.75356 | 42.24585 | 31141 ft | 496 kts | 104° |
| 2026-05-01 14:11 | 53.72414 | 42.41300 | 31140 ft | 498 kts | 104° |
| 2026-05-01 14:12 | 53.70424 | 42.52515 | 31142 ft | 499 kts | 104° |
| 2026-05-01 14:12 | 53.68436 | 42.63650 | 31141 ft | 500 kts | 105° |
| 2026-05-01 14:13 | 53.66533 | 42.74876 | 31143 ft | 499 kts | 103° |
| 2026-05-01 14:13 | 53.64788 | 42.86142 | 31131 ft | 500 kts | 103° |
| 2026-05-01 14:14 | 53.63014 | 42.97464 | 31133 ft | 501 kts | 104° |
| 2026-05-01 14:14 | 53.61220 | 43.08790 | 31131 ft | 503 kts | 104° |
| 2026-05-01 14:15 | 53.59420 | 43.20056 | 31124 ft | 504 kts | 104° |
| 2026-05-01 14:15 | 53.57589 | 43.31422 | 31119 ft | 503 kts | 104° |
| 2026-05-01 14:16 | 53.55747 | 43.42769 | 31109 ft | 505 kts | 104° |
| 2026-05-01 14:16 | 53.53899 | 43.54079 | 31119 ft | 504 kts | 104° |
| 2026-05-01 14:17 | 53.52040 | 43.65377 | 31116 ft | 506 kts | 105° |
| 2026-05-01 14:17 | 53.50153 | 43.76768 | 31114 ft | 505 kts | 105° |
| 2026-05-01 14:18 | 53.48270 | 43.88060 | 31117 ft | 506 kts | 105° |
| 2026-05-01 14:18 | 53.46677 | 43.97560 | 31113 ft | 508 kts | 106° |
| 2026-05-01 14:19 | 53.44443 | 44.10794 | 31113 ft | 508 kts | 106° |
| 2026-05-01 14:19 | 53.42519 | 44.22109 | 31113 ft | 509 kts | 106° |
| 2026-05-01 14:20 | 53.39588 | 44.39209 | 31111 ft | 509 kts | 106° |
| 2026-05-01 14:21 | 53.37632 | 44.50531 | 31114 ft | 510 kts | 106° |
| 2026-05-01 14:21 | 53.35655 | 44.61893 | 31114 ft | 510 kts | 106° |
| 2026-05-01 14:22 | 53.32666 | 44.78939 | 31108 ft | 512 kts | 107° |
| 2026-05-01 14:22 | 53.30665 | 44.90260 | 31108 ft | 512 kts | 107° |
| 2026-05-01 14:23 | 53.28636 | 45.01666 | 31111 ft | 513 kts | 108° |
| 2026-05-01 14:23 | 53.26481 | 45.12948 | 31110 ft | 513 kts | 111° |
| 2026-05-01 14:24 | 53.24025 | 45.24095 | 31111 ft | 513 kts | 111° |
| 2026-05-01 14:24 | 53.21560 | 45.35278 | 31106 ft | 516 kts | 111° |
| 2026-05-01 14:25 | 53.19096 | 45.46453 | 31099 ft | 517 kts | 111° |
| 2026-05-01 14:25 | 53.16623 | 45.57643 | 31094 ft | 517 kts | 111° |
| 2026-05-01 14:26 | 53.12894 | 45.74428 | 31090 ft | 518 kts | 112° |
| 2026-05-01 14:27 | 53.10391 | 45.85637 | 31087 ft | 519 kts | 112° |
| 2026-05-01 14:27 | 53.07912 | 45.96815 | 31084 ft | 520 kts | 112° |
| 2026-05-01 14:28 | 53.04149 | 46.13686 | 31087 ft | 521 kts | 113° |
| 2026-05-01 14:28 | 53.01604 | 46.25015 | 31085 ft | 521 kts | 113° |
| 2026-05-01 14:29 | 52.99078 | 46.36198 | 31090 ft | 522 kts | 113° |
| 2026-05-01 14:30 | 52.93950 | 46.58722 | 31080 ft | 525 kts | 113° |
| 2026-05-01 14:31 | 52.90049 | 46.75699 | 31067 ft | 526 kts | 114° |
| 2026-05-01 14:31 | 52.87442 | 46.86969 | 31073 ft | 526 kts | 114° |
| 2026-05-01 14:32 | 52.84810 | 46.98288 | 31083 ft | 528 kts | 114° |
| 2026-05-01 14:32 | 52.82162 | 47.09614 | 31072 ft | 529 kts | 114° |
| 2026-05-01 14:33 | 52.79659 | 47.21019 | 31082 ft | 530 kts | 112° |
| 2026-05-01 14:33 | 52.77223 | 47.32529 | 31076 ft | 530 kts | 112° |
| 2026-05-01 14:34 | 52.74772 | 47.43998 | 31078 ft | 533 kts | 112° |
| 2026-05-01 14:34 | 52.72306 | 47.55452 | 31081 ft | 532 kts | 112° |
| 2026-05-01 14:35 | 52.69822 | 47.66940 | 31085 ft | 536 kts | 114° |
| 2026-05-01 14:35 | 52.67319 | 47.78478 | 31068 ft | 534 kts | 114° |
| 2026-05-01 14:36 | 52.64828 | 47.89894 | 31070 ft | 534 kts | 114° |
| 2026-05-01 14:36 | 52.62296 | 48.01422 | 31067 ft | 538 kts | 114° |
| 2026-05-01 14:37 | 52.59753 | 48.12939 | 31066 ft | 537 kts | 114° |
| 2026-05-01 14:37 | 52.57172 | 48.24524 | 31072 ft | 540 kts | 114° |
| 2026-05-01 14:38 | 52.54594 | 48.36035 | 31101 ft | 540 kts | 114° |
| 2026-05-01 14:38 | 52.51995 | 48.47572 | 31080 ft | 540 kts | 114° |
| 2026-05-01 14:39 | 52.49385 | 48.59096 | 31082 ft | 543 kts | 114° |
| 2026-05-01 14:39 | 52.46740 | 48.70713 | 31063 ft | 543 kts | 115° |
| 2026-05-01 14:40 | 52.44093 | 48.82273 | 31075 ft | 544 kts | 115° |
| 2026-05-01 14:40 | 52.41421 | 48.93881 | 31096 ft | 544 kts | 116° |
| 2026-05-01 14:41 | 52.38729 | 49.05508 | 31074 ft | 547 kts | 116° |
| 2026-05-01 14:41 | 52.36021 | 49.17137 | 31077 ft | 549 kts | 116° |
| 2026-05-01 14:42 | 52.33289 | 49.28771 | 31064 ft | 549 kts | 116° |
| 2026-05-01 14:42 | 52.30517 | 49.40501 | 31067 ft | 552 kts | 116° |
| 2026-05-01 14:43 | 52.27743 | 49.52195 | 31069 ft | 553 kts | 116° |
| 2026-05-01 14:43 | 52.24969 | 49.63835 | 31088 ft | 554 kts | 116° |
| 2026-05-01 14:44 | 52.22159 | 49.75568 | 31075 ft | 555 kts | 117° |
| 2026-05-01 14:44 | 52.17936 | 49.93079 | 31066 ft | 557 kts | 117° |
| 2026-05-01 14:45 | 52.13653 | 50.10690 | 31058 ft | 558 kts | 117° |
| 2026-05-01 14:46 | 52.10790 | 50.22389 | 31082 ft | 561 kts | 117° |
| 2026-05-01 14:46 | 52.06444 | 50.40025 | 31040 ft | 562 kts | 117° |
| 2026-05-01 14:47 | 52.03538 | 50.51744 | 31065 ft | 564 kts | 118° |
| 2026-05-01 14:48 | 51.99006 | 50.69278 | 31026 ft | 556 kts | 126° |
| 2026-05-01 14:48 | 51.91909 | 50.83414 | 31020 ft | 526 kts | 151° |
| 2026-05-01 14:49 | 51.85852 | 50.89407 | 31031 ft | 499 kts | 168° |
| 2026-05-01 14:49 | 51.79375 | 50.92945 | 31047 ft | 486 kts | 175° |
| 2026-05-01 14:50 | 51.66529 | 50.99739 | 31070 ft | 508 kts | 162° |
| 2026-05-01 14:51 | 51.57520 | 51.09062 | 31064 ft | 520 kts | 156° |
| 2026-05-01 14:52 | 51.48508 | 51.18632 | 31061 ft | 521 kts | 157° |
| 2026-05-01 14:53 | 51.39461 | 51.28251 | 31070 ft | 521 kts | 156° |
| 2026-05-01 14:53 | 51.33449 | 51.34686 | 31073 ft | 522 kts | 156° |
| 2026-05-01 14:54 | 51.27402 | 51.41128 | 31076 ft | 525 kts | 156° |
| 2026-05-01 14:54 | 51.21333 | 51.47577 | 31081 ft | 523 kts | 156° |
| 2026-05-01 14:55 | 51.15372 | 51.54307 | 31095 ft | 537 kts | 147° |
| 2026-05-01 14:55 | 51.10280 | 51.63189 | 31092 ft | 551 kts | 137° |
| 2026-05-01 14:56 | 51.05433 | 51.72573 | 31066 ft | 550 kts | 138° |
| 2026-05-01 14:56 | 51.00148 | 51.82751 | 31066 ft | 554 kts | 137° |
| 2026-05-01 14:57 | 50.95246 | 51.92146 | 31068 ft | 553 kts | 137° |
| 2026-05-01 14:57 | 50.87888 | 52.06170 | 31075 ft | 553 kts | 137° |
| 2026-05-01 14:58 | 50.82963 | 52.15510 | 31074 ft | 551 kts | 137° |
| 2026-05-01 14:58 | 50.78075 | 52.24742 | 31079 ft | 551 kts | 137° |
| 2026-05-01 14:59 | 50.73154 | 52.34002 | 31084 ft | 554 kts | 137° |
| 2026-05-01 14:59 | 50.68195 | 52.43304 | 31080 ft | 553 kts | 136° |
| 2026-05-01 15:00 | 50.60834 | 52.57167 | 31090 ft | 554 kts | 136° |
| 2026-05-01 15:01 | 50.55905 | 52.66419 | 31081 ft | 551 kts | 137° |
| 2026-05-01 15:01 | 50.51010 | 52.75569 | 31066 ft | 550 kts | 137° |
| 2026-05-01 15:02 | 50.46091 | 52.84727 | 31079 ft | 552 kts | 137° |
| 2026-05-01 15:02 | 50.41151 | 52.93895 | 31077 ft | 549 kts | 137° |
| 2026-05-01 15:03 | 50.38696 | 52.98436 | 31086 ft | 551 kts | 137° |